createdAt,value
2018-12-02T00:00:55.289Z,99950.38
2018-12-02T00:03:24.976Z,99946.41
2018-12-02T00:05:54.280Z,99940.37
2018-12-02T00:08:23.574Z,99937.02
2018-12-02T00:10:53.125Z,99945.67
2018-12-02T00:13:22.823Z,99936.28
2018-12-02T00:15:52.313Z,99938.41
2018-12-02T00:18:21.626Z,99937.75
2018-12-02T00:20:51.306Z,99928.59
2018-12-02T00:23:20.634Z,99926.09
2018-12-02T00:25:49.802Z,99918.22
2018-12-02T00:28:19.235Z,99913.64
2018-12-02T00:30:48.496Z,99912.51
2018-12-02T00:33:17.678Z,99918.86
2018-12-02T00:35:47.107Z,99910.29
2018-12-02T00:38:16.488Z,99910.47
2018-12-02T00:40:45.721Z,99902.00
2018-12-02T00:43:14.985Z,99901.47
2018-12-02T00:45:44.324Z,99899.80
2018-12-02T00:48:13.865Z,99896.09
2018-12-02T00:50:43.344Z,99890.56
2018-12-02T00:53:12.557Z,99887.70
2018-12-02T00:55:44.238Z,99885.05
2018-12-02T00:58:13.712Z,99881.69
2018-12-02T01:00:43.790Z,99873.95
2018-12-02T01:03:13.152Z,99868.08
2018-12-02T01:05:42.853Z,99863.24
2018-12-02T01:08:12.337Z,99861.92
2018-12-02T01:10:41.888Z,99850.06
2018-12-02T01:13:11.365Z,99844.23
2018-12-02T01:15:41.986Z,99842.69
2018-12-02T01:18:11.387Z,99835.70
2018-12-02T01:20:41.336Z,99833.65
2018-12-02T01:23:10.811Z,99833.47
2018-12-02T01:25:40.293Z,99832.15
2018-12-02T01:28:09.619Z,99829.30
2018-12-02T01:30:39.121Z,99827.19
2018-12-02T01:33:08.615Z,99820.19
2018-12-02T01:35:38.146Z,99821.52
2018-12-02T01:38:07.613Z,99829.64
2018-12-02T01:40:37.203Z,99821.41
2018-12-02T01:43:06.468Z,99818.12
2018-12-02T01:45:36.985Z,99817.36
2018-12-02T01:48:06.775Z,99817.45
2018-12-02T01:50:36.000Z,99814.42
2018-12-02T01:53:05.962Z,99807.81
2018-12-02T01:55:35.400Z,99804.73
2018-12-02T01:58:05.253Z,99801.42
2018-12-02T02:00:34.633Z,99789.79
2018-12-02T02:03:04.379Z,99782.14
2018-12-02T02:05:33.628Z,99785.16
2018-12-02T02:08:03.118Z,99777.84
2018-12-02T02:10:32.345Z,99780.48
2018-12-02T02:13:01.701Z,99769.56
2018-12-02T02:15:31.018Z,99767.25
2018-12-02T02:18:00.209Z,99774.39
2018-12-02T02:20:29.620Z,99768.91
2018-12-02T02:22:59.138Z,99767.95
2018-12-02T02:25:28.636Z,99764.97
2018-12-02T02:27:59.307Z,99755.38
2018-12-02T02:30:29.930Z,99755.00
2018-12-02T02:32:59.405Z,99743.79
2018-12-02T02:35:28.922Z,99741.29
2018-12-02T02:37:58.844Z,99739.19
2018-12-02T02:40:29.520Z,99723.61
2018-12-02T02:42:58.783Z,99727.06
2018-12-02T02:45:28.144Z,99721.14
2018-12-02T02:47:57.685Z,99719.12
2018-12-02T02:50:27.809Z,99708.16
2018-12-02T02:52:59.249Z,99712.94
2018-12-02T02:55:28.701Z,99722.08
2018-12-02T02:57:58.481Z,99709.80
2018-12-02T03:00:28.801Z,99714.11
2018-12-02T03:02:57.987Z,99710.85
2018-12-02T03:05:27.328Z,99706.69
2018-12-02T03:07:56.785Z,99701.97
2018-12-02T03:10:26.304Z,99699.94
2018-12-02T03:12:55.947Z,99685.83
2018-12-02T03:15:25.270Z,99684.16
2018-12-02T03:17:54.566Z,99687.29
2018-12-02T03:20:24.303Z,99684.91
2018-12-02T03:22:54.933Z,99683.17
2018-12-02T03:25:25.530Z,99683.45
2018-12-02T03:27:55.230Z,99686.14
2018-12-02T03:30:25.633Z,99679.67
2018-12-02T03:32:55.138Z,99671.48
2018-12-02T03:35:26.447Z,99666.73
2018-12-02T03:37:56.563Z,99662.84
2018-12-02T03:40:26.925Z,99658.20
2018-12-02T03:42:56.824Z,99657.62
2018-12-02T03:45:29.313Z,99656.48
2018-12-02T03:47:59.197Z,99649.55
2018-12-02T03:50:28.605Z,99649.04
2018-12-02T03:52:58.069Z,99635.39
2018-12-02T03:55:27.277Z,99632.98
2018-12-02T03:57:57.312Z,99627.13
2018-12-02T04:00:27.160Z,99621.64
2018-12-02T04:02:57.362Z,99622.83
2018-12-02T04:05:27.073Z,99612.77
2018-12-02T04:07:56.361Z,99612.25
2018-12-02T04:10:25.675Z,99605.37
2018-12-02T04:12:55.144Z,99597.70
2018-12-02T04:15:25.542Z,99595.53
2018-12-02T04:17:54.964Z,99590.39
2018-12-02T04:20:24.488Z,99588.98
2018-12-02T04:22:54.071Z,99582.56
2018-12-02T04:25:26.405Z,99587.56
2018-12-02T04:27:55.911Z,99590.16
2018-12-02T04:30:26.001Z,99587.74
2018-12-02T04:32:55.314Z,99583.13
2018-12-02T04:35:25.641Z,99584.88
2018-12-02T04:37:55.371Z,99579.48
2018-12-02T04:40:24.599Z,99582.23
2018-12-02T04:42:53.936Z,99575.52
2018-12-02T04:45:23.453Z,99576.66
2018-12-02T04:47:52.987Z,99578.97
2018-12-02T04:50:24.426Z,99572.22
2018-12-02T04:52:54.002Z,99571.84
2018-12-02T04:55:23.480Z,99563.25
2018-12-02T04:57:53.016Z,99550.84
2018-12-02T05:00:22.502Z,99538.86
2018-12-02T05:02:52.728Z,99536.06
2018-12-02T05:05:24.347Z,99537.84
2018-12-02T05:07:54.369Z,99527.44
2018-12-02T05:10:23.645Z,99527.08
2018-12-02T05:12:53.232Z,99526.75
2018-12-02T05:15:23.634Z,99523.77
2018-12-02T05:17:52.844Z,99519.30
2018-12-02T05:20:23.293Z,99507.70
2018-12-02T05:22:52.777Z,99507.06
2018-12-02T05:25:22.154Z,99501.12
2018-12-02T05:27:51.593Z,99498.80
2018-12-02T05:30:22.975Z,99497.96
2018-12-02T05:32:53.513Z,99491.72
2018-12-02T05:35:23.118Z,99493.04
2018-12-02T05:37:52.677Z,99491.23
2018-12-02T05:40:23.696Z,99489.09
2018-12-02T05:42:54.244Z,99477.71
2018-12-02T05:45:24.342Z,99475.06
2018-12-02T05:47:53.757Z,99475.87
2018-12-02T05:50:24.727Z,99464.61
2018-12-02T05:52:56.237Z,99466.65
2018-12-02T05:55:30.302Z,99465.50
2018-12-02T05:57:59.766Z,99460.83
2018-12-02T06:00:29.281Z,99462.98
2018-12-02T06:02:58.758Z,99458.51
2018-12-02T06:05:28.284Z,99456.73
2018-12-02T06:07:57.774Z,99453.58
2018-12-02T06:10:27.493Z,99448.03
2018-12-02T06:12:56.967Z,99460.72
2018-12-02T06:15:27.086Z,99453.02
2018-12-02T06:17:56.301Z,99451.64
2018-12-02T06:20:27.122Z,99444.06
2018-12-02T06:22:57.718Z,99451.05
2018-12-02T06:25:27.462Z,99438.47
2018-12-02T06:27:56.900Z,99438.14
2018-12-02T06:30:28.874Z,99438.15
2018-12-02T06:32:59.608Z,99433.19
2018-12-02T06:35:29.321Z,99428.87
2018-12-02T06:38:00.038Z,99427.05
2018-12-02T06:40:30.001Z,99415.81
2018-12-02T06:42:59.274Z,99427.72
2018-12-02T06:45:29.452Z,99424.59
2018-12-02T06:47:58.973Z,99424.44
2018-12-02T06:50:29.293Z,99420.62
2018-12-02T06:52:58.698Z,99436.51
2018-12-02T06:55:34.643Z,99441.80
2018-12-02T06:58:09.588Z,99449.72
2018-12-02T07:02:49.590Z,99449.58
2018-12-02T07:05:23.791Z,99446.91
2018-12-02T07:07:53.272Z,99440.98
2018-12-02T07:10:22.784Z,99441.30
2018-12-02T07:12:52.287Z,99432.86
2018-12-02T07:15:21.812Z,99427.55
2018-12-02T07:17:58.920Z,99430.70
2018-12-02T07:20:31.802Z,99422.44
2018-12-02T07:23:02.943Z,99413.17
2018-12-02T07:25:38.083Z,99417.48
2018-12-02T07:28:07.847Z,99414.17
2018-12-02T07:30:37.064Z,99421.11
2018-12-02T07:33:07.080Z,99418.80
2018-12-02T07:35:36.561Z,99418.64
2018-12-02T07:38:13.397Z,99418.48
2018-12-02T07:40:43.076Z,99417.49
2018-12-02T07:43:13.549Z,99414.83
2018-12-02T07:45:42.768Z,99418.47
2018-12-02T07:48:11.993Z,99407.41
2018-12-02T07:50:41.478Z,99413.51
2018-12-02T07:53:11.018Z,99411.88
2018-12-02T07:55:40.492Z,99411.20
2018-12-02T07:58:15.050Z,99415.34
2018-12-02T08:00:44.880Z,99396.63
2018-12-02T08:03:14.327Z,99409.71
2018-12-02T08:05:43.841Z,99399.47
2018-12-02T08:08:13.350Z,99407.23
2018-12-02T08:10:42.895Z,99400.30
2018-12-02T08:13:12.346Z,99400.79
2018-12-02T08:15:42.480Z,99400.77
2018-12-02T08:18:11.983Z,99404.26
2018-12-02T08:20:41.504Z,99396.81
2018-12-02T08:23:11.212Z,99395.82
2018-12-02T08:25:40.726Z,99395.99
2018-12-02T08:28:10.226Z,99404.59
2018-12-02T08:30:39.689Z,99388.20
2018-12-02T08:33:09.065Z,99393.00
2018-12-02T08:35:38.924Z,99385.39
2018-12-02T08:38:11.252Z,99388.21
2018-12-02T08:40:40.641Z,99392.19
2018-12-02T08:43:10.129Z,99389.70
2018-12-02T08:45:39.862Z,99390.38
2018-12-02T08:48:09.112Z,99396.97
2018-12-02T08:50:38.520Z,99393.49
2018-12-02T08:53:08.355Z,99387.88
2018-12-02T08:55:39.330Z,99390.03
2018-12-02T08:58:09.001Z,99393.81
2018-12-02T09:00:38.799Z,99392.81
2018-12-02T09:03:09.698Z,99384.58
2018-12-02T09:05:39.198Z,99391.52
2018-12-02T09:08:10.029Z,99400.28
2018-12-02T09:10:40.009Z,99406.56
2018-12-02T09:13:10.283Z,99402.92
2018-12-02T09:15:40.253Z,99414.52
2018-12-02T09:18:10.806Z,99407.90
2018-12-02T09:20:40.117Z,99412.02
2018-12-02T09:23:10.825Z,99408.21
2018-12-02T09:25:40.290Z,99409.22
2018-12-02T09:28:10.479Z,99415.65
2018-12-02T09:30:39.941Z,99407.20
2018-12-02T09:33:09.346Z,99415.64
2018-12-02T09:35:38.953Z,99397.78
2018-12-02T09:38:08.465Z,99412.30
2018-12-02T09:40:38.181Z,99408.84
2018-12-02T09:43:07.980Z,99403.20
2018-12-02T09:45:37.521Z,99404.49
2018-12-02T09:48:07.517Z,99401.48
2018-12-02T09:50:36.753Z,99400.00
2018-12-02T09:53:07.286Z,99387.72
2018-12-02T09:55:41.750Z,99395.96
2018-12-02T09:58:13.788Z,99398.61
2018-12-02T10:00:43.978Z,99397.61
2018-12-02T10:03:13.924Z,99399.73
2018-12-02T10:05:43.588Z,99396.91
2018-12-02T10:08:12.864Z,99405.68
2018-12-02T10:10:42.264Z,99405.35
2018-12-02T10:13:13.608Z,99406.36
2018-12-02T10:15:44.054Z,99410.46
2018-12-02T10:18:13.824Z,99416.25
2018-12-02T10:20:43.365Z,99416.44
2018-12-02T10:23:12.839Z,99411.78
2018-12-02T10:25:42.301Z,99406.80
2018-12-02T10:28:12.204Z,99404.77
2018-12-02T10:30:41.787Z,99405.38
2018-12-02T10:33:11.260Z,99409.20
2018-12-02T10:35:40.777Z,99406.97
2018-12-02T10:38:10.073Z,99401.74
2018-12-02T10:40:39.815Z,99404.98
2018-12-02T10:43:09.736Z,99399.10
2018-12-02T10:45:39.014Z,99392.25
2018-12-02T10:48:11.397Z,99389.06
2018-12-02T10:50:40.853Z,99395.23
2018-12-02T10:53:25.806Z,99397.95
2018-12-02T10:55:57.628Z,99391.00
2018-12-02T10:58:28.403Z,99385.54
2018-12-02T11:01:04.317Z,99386.23
2018-12-02T11:03:33.818Z,99381.22
2018-12-02T11:06:03.323Z,99384.41
2018-12-02T11:08:32.825Z,99372.47
2018-12-02T11:11:02.138Z,99384.50
2018-12-02T11:13:31.631Z,99383.81
2018-12-02T11:16:01.098Z,99391.73
2018-12-02T11:18:30.633Z,99388.83
2018-12-02T11:21:00.168Z,99389.84
2018-12-02T11:23:29.671Z,99382.19
2018-12-02T11:25:59.344Z,99377.94
2018-12-02T11:28:28.863Z,99378.56
2018-12-02T11:30:58.531Z,99386.45
2018-12-02T11:33:28.297Z,99387.31
2018-12-02T11:35:58.171Z,99372.46
2018-12-02T11:38:27.471Z,99376.47
2018-12-02T11:40:57.166Z,99375.22
2018-12-02T11:43:26.534Z,99372.84
2018-12-02T11:45:55.987Z,99372.71
2018-12-02T11:48:25.497Z,99379.05
2018-12-02T11:50:55.237Z,99380.77
2018-12-02T11:53:24.807Z,99381.05
2018-12-02T11:55:54.842Z,99383.42
2018-12-02T11:58:24.349Z,99383.70
2018-12-02T12:00:54.088Z,99382.58
2018-12-02T12:03:23.307Z,99392.24
2018-12-02T12:05:52.659Z,99384.33
2018-12-02T12:08:22.136Z,99383.28
2018-12-02T12:10:51.876Z,99381.63
2018-12-02T12:13:21.362Z,99382.89
2018-12-02T12:15:50.613Z,99376.00
2018-12-02T12:18:20.201Z,99381.48
2018-12-02T12:20:49.440Z,99380.83
2018-12-02T12:23:20.759Z,99378.80
2018-12-02T12:25:50.020Z,99378.28
2018-12-02T12:28:19.614Z,99379.66
2018-12-02T12:30:48.976Z,99380.81
2018-12-02T12:33:18.408Z,99376.11
2018-12-02T12:35:50.437Z,99388.05
2018-12-02T12:38:19.904Z,99391.28
2018-12-02T12:40:51.252Z,99381.13
2018-12-02T12:43:29.788Z,99391.59
2018-12-02T12:46:00.477Z,99394.80
2018-12-02T12:48:29.719Z,99396.30
2018-12-02T12:50:59.360Z,99395.27
2018-12-02T12:53:28.656Z,99395.59
2018-12-02T12:55:58.157Z,99390.22
2018-12-02T12:58:27.628Z,99400.03
2018-12-02T13:00:57.122Z,99404.16
2018-12-02T13:03:26.667Z,99406.83
2018-12-02T13:05:56.135Z,99403.19
2018-12-02T13:08:25.628Z,99409.17
2018-12-02T13:10:55.193Z,99406.82
2018-12-02T13:13:24.637Z,99410.55
2018-12-02T13:15:53.974Z,99409.84
2018-12-02T13:18:23.459Z,99412.86
2018-12-02T13:20:54.996Z,99411.88
2018-12-02T13:23:24.597Z,99416.28
2018-12-02T13:25:54.409Z,99420.41
2018-12-02T13:28:23.749Z,99419.13
2018-12-02T13:30:53.201Z,99421.30
2018-12-02T13:33:22.555Z,99426.22
2018-12-02T13:35:52.013Z,99429.50
2018-12-02T13:38:21.577Z,99423.50
2018-12-02T13:40:51.017Z,99431.92
2018-12-02T13:43:22.605Z,99432.09
2018-12-02T13:45:52.248Z,99431.42
2018-12-02T13:48:21.588Z,99442.43
2018-12-02T13:50:50.933Z,99436.34
2018-12-02T13:53:20.393Z,99440.47
2018-12-02T13:55:49.953Z,99446.28
2018-12-02T13:58:19.444Z,99447.02
2018-12-02T14:00:48.913Z,99447.05
2018-12-02T14:03:18.441Z,99453.22
2018-12-02T14:05:48.995Z,99453.22
2018-12-02T14:08:18.434Z,99458.92
2018-12-02T14:10:48.005Z,99453.35
2018-12-02T14:13:19.307Z,99455.84
2018-12-02T14:16:13.617Z,99458.56
2018-12-02T14:18:44.205Z,99457.67
2018-12-02T14:21:13.665Z,99461.41
2018-12-02T14:23:44.275Z,99454.23
2018-12-02T14:26:17.497Z,99464.16
2018-12-02T14:28:55.252Z,99472.47
2018-12-02T14:31:25.433Z,99467.09
2018-12-02T14:33:54.856Z,99472.73
2018-12-02T14:36:24.213Z,99473.17
2018-12-02T14:38:53.698Z,99473.25
2018-12-02T14:41:23.375Z,99474.63
2018-12-02T14:43:52.701Z,99471.92
2018-12-02T14:46:22.195Z,99476.72
2018-12-02T14:48:51.505Z,99474.80
2018-12-02T14:51:21.186Z,99484.14
2018-12-02T14:53:50.945Z,99484.89
2018-12-02T14:56:20.407Z,99476.45
2018-12-02T14:58:49.629Z,99486.58
2018-12-02T15:01:18.913Z,99488.98
2018-12-02T15:03:48.440Z,99488.80
2018-12-02T15:06:17.814Z,99495.07
2018-12-02T15:08:47.369Z,99496.00
2018-12-02T15:11:16.829Z,99499.06
2018-12-02T15:13:46.369Z,99497.78
2018-12-02T15:16:15.860Z,99502.31
2018-12-02T15:18:45.420Z,99505.67
2018-12-02T15:21:14.872Z,99510.56
2018-12-02T15:23:44.376Z,99510.80
2018-12-02T15:26:13.922Z,99507.23
2018-12-02T15:28:43.406Z,99515.78
2018-12-02T15:31:13.089Z,99515.17
2018-12-02T15:33:42.654Z,99514.41
2018-12-02T15:36:12.140Z,99518.58
2018-12-02T15:38:41.850Z,99518.61
2018-12-02T15:41:11.664Z,99514.48
2018-12-02T15:43:41.206Z,99517.24
2018-12-02T15:46:10.973Z,99521.28
2018-12-02T15:48:40.434Z,99524.19
2018-12-02T15:51:09.976Z,99519.91
2018-12-02T15:53:39.434Z,99525.23
2018-12-02T15:56:08.991Z,99522.50
2018-12-02T15:58:38.853Z,99524.05
2018-12-02T16:01:08.397Z,99523.73
2018-12-02T16:03:37.870Z,99532.17
2018-12-02T16:06:07.453Z,99526.57
2018-12-02T16:08:36.911Z,99528.08
2018-12-02T16:11:06.900Z,99525.34
2018-12-02T16:13:36.202Z,99527.94
2018-12-02T16:16:05.845Z,99530.31
2018-12-02T16:18:35.094Z,99529.23
2018-12-02T16:21:04.354Z,99537.95
2018-12-02T16:23:33.835Z,99532.17
2018-12-02T16:26:03.237Z,99528.50
2018-12-02T16:28:32.709Z,99530.95
2018-12-02T16:31:01.961Z,99534.94
2018-12-02T16:33:32.401Z,99538.94
2018-12-02T16:36:01.868Z,99540.80
2018-12-02T16:38:31.058Z,99532.24
2018-12-02T16:41:00.473Z,99541.39
2018-12-02T16:43:29.969Z,99542.50
2018-12-02T16:45:59.460Z,99539.38
2018-12-02T16:48:28.881Z,99540.79
2018-12-02T16:50:58.140Z,99533.01
2018-12-02T16:53:29.229Z,99537.50
2018-12-02T16:56:10.728Z,99538.19
2018-12-02T16:59:31.269Z,99530.98
2018-12-02T17:02:05.133Z,99533.40
2018-12-02T17:04:32.143Z,99543.13
2018-12-02T17:07:01.659Z,99541.03
2018-12-02T17:09:31.200Z,99539.18
2018-12-02T17:12:00.655Z,99542.41
2018-12-02T17:14:29.898Z,99537.84
2018-12-02T17:16:59.252Z,99537.36
2018-12-02T17:19:28.777Z,99541.14
2018-12-02T17:21:58.297Z,99544.47
2018-12-02T17:24:27.517Z,99544.09
2018-12-02T17:26:56.924Z,99544.26
2018-12-02T17:29:26.389Z,99551.20
2018-12-02T17:32:07.809Z,99548.57
2018-12-02T17:34:37.276Z,99548.39
2018-12-02T17:37:06.933Z,99552.39
2018-12-02T17:39:44.716Z,99548.39
2018-12-02T17:42:14.819Z,99544.96
2018-12-02T17:44:44.544Z,99556.38
2018-12-02T17:47:14.031Z,99550.98
2018-12-02T17:49:43.254Z,99549.02
2018-12-02T17:52:13.077Z,99547.87
2018-12-02T17:54:42.719Z,99552.07
2018-12-02T17:57:12.258Z,99553.20
2018-12-02T17:59:41.730Z,99553.86
2018-12-02T18:02:11.850Z,99552.45
2018-12-02T18:04:41.397Z,99548.67
2018-12-02T18:07:10.906Z,99544.40
2018-12-02T18:09:40.369Z,99554.17
2018-12-02T18:12:09.894Z,99554.45
2018-12-02T18:14:39.373Z,99558.77
2018-12-02T18:17:08.893Z,99565.45
2018-12-02T18:19:38.365Z,99566.66
2018-12-02T18:22:07.737Z,99561.64
2018-12-02T18:24:37.205Z,99565.18
2018-12-02T18:27:06.745Z,99568.36
2018-12-02T18:29:36.485Z,99566.33
2018-12-02T18:32:06.548Z,99567.38
2018-12-02T18:34:36.428Z,99571.88
2018-12-02T18:37:08.061Z,99565.91
2018-12-02T18:39:37.298Z,99568.00
2018-12-02T18:42:08.405Z,99568.00
2018-12-02T18:44:37.932Z,99577.61
2018-12-02T18:47:07.455Z,99577.16
2018-12-02T18:49:36.650Z,99583.02
2018-12-02T18:52:06.704Z,99588.55
2018-12-02T18:54:35.981Z,99591.21
2018-12-02T18:57:05.797Z,99596.33
2018-12-02T18:59:35.193Z,99592.41
2018-12-02T19:02:05.173Z,99586.91
2018-12-02T19:04:34.625Z,99595.52
2018-12-02T19:07:04.269Z,99591.39
2018-12-02T19:09:33.544Z,99604.11
2018-12-02T19:12:02.727Z,99602.75
2018-12-02T19:14:32.005Z,99605.77
2018-12-02T19:17:01.273Z,99609.30
2018-12-02T19:19:31.002Z,99612.23
2018-12-02T19:22:00.962Z,99610.73
2018-12-02T19:24:29.676Z,99610.66
2018-12-02T19:26:59.120Z,99606.42
2018-12-02T19:29:28.598Z,99606.11
2018-12-02T19:31:57.911Z,99601.87
2018-12-02T19:34:27.950Z,99605.45
2018-12-02T19:37:00.351Z,99601.52
2018-12-02T19:39:29.704Z,99603.09
2018-12-02T19:41:59.013Z,99596.41
2018-12-02T19:44:28.185Z,99601.73
2018-12-02T19:46:57.622Z,99599.14
2018-12-02T19:49:26.756Z,99597.66
2018-12-02T19:51:56.222Z,99599.09
2018-12-02T19:54:25.487Z,99593.38
2018-12-02T19:56:54.709Z,99596.69
2018-12-02T19:59:23.828Z,99595.52
2018-12-02T20:01:53.060Z,99593.11
2018-12-02T20:04:22.490Z,99585.95
2018-12-02T20:06:51.823Z,99585.53
2018-12-02T20:09:21.065Z,99583.53
2018-12-02T20:11:50.546Z,99576.59
2018-12-02T20:14:19.725Z,99573.86
2018-12-02T20:16:49.260Z,99582.80
2018-12-02T20:19:23.980Z,99582.89
2018-12-02T20:21:53.340Z,99577.39
2018-12-02T20:24:43.350Z,99570.77
2018-12-02T20:27:12.792Z,99569.97
2018-12-02T20:29:42.113Z,99571.27
2018-12-02T20:32:12.695Z,99570.64
2018-12-02T20:34:42.161Z,99569.52
2018-12-02T20:37:11.428Z,99567.87
2018-12-02T20:39:40.931Z,99561.88
2018-12-02T20:42:10.087Z,99557.67
2018-12-02T20:44:39.363Z,99564.19
2018-12-02T20:47:08.670Z,99557.74
2018-12-02T20:49:38.056Z,99554.77
2018-12-02T20:52:07.969Z,99559.42
2018-12-02T20:54:37.311Z,99549.30
2018-12-02T20:57:07.088Z,99545.02
2018-12-02T20:59:36.494Z,99541.91
2018-12-02T21:02:06.709Z,99541.70
2018-12-02T21:04:37.030Z,99545.20
2018-12-02T21:07:07.090Z,99540.58
2018-12-02T21:09:36.602Z,99541.63
2018-12-02T21:12:06.589Z,99546.78
2018-12-02T21:14:35.905Z,99540.48
2018-12-02T21:17:05.602Z,99539.59
2018-12-02T21:19:35.095Z,99528.17
2018-12-02T21:22:04.610Z,99537.78
2018-12-02T21:24:33.989Z,99534.77
2018-12-02T21:27:03.435Z,99536.02
2018-12-02T21:29:32.883Z,99524.45
2018-12-02T21:32:02.204Z,99523.38
2018-12-02T21:34:31.336Z,99528.87
2018-12-02T21:37:00.802Z,99515.88
2018-12-02T21:39:29.957Z,99517.83
2018-12-02T21:41:59.577Z,99513.98
2018-12-02T21:44:28.893Z,99516.75
2018-12-02T21:46:58.215Z,99512.38
2018-12-02T21:49:29.602Z,99519.69
2018-12-02T21:52:00.504Z,99517.06
2018-12-02T21:54:31.950Z,99517.14
2018-12-02T21:57:01.145Z,99522.72
2018-12-02T21:59:30.452Z,99518.37
2018-12-02T22:01:59.937Z,99521.63
2018-12-02T22:04:29.256Z,99517.20
2018-12-02T22:06:58.532Z,99512.30
2018-12-02T22:09:27.861Z,99516.84
2018-12-02T22:11:57.127Z,99522.42
2018-12-02T22:14:26.404Z,99527.34
2018-12-02T22:16:55.572Z,99534.14
2018-12-02T22:19:25.047Z,99545.27
2018-12-02T22:21:54.329Z,99553.02
2018-12-02T22:24:23.650Z,99554.88
2018-12-02T22:26:52.933Z,99572.19
2018-12-02T22:29:22.252Z,99565.63
2018-12-02T22:31:51.519Z,99550.85
2018-12-02T22:34:20.683Z,99553.91
2018-12-02T22:36:49.880Z,99541.69
2018-12-02T22:39:19.237Z,99551.06
2018-12-02T22:41:48.521Z,99551.41
2018-12-02T22:44:18.056Z,99551.45
2018-12-02T22:46:47.980Z,99552.77
2018-12-02T22:49:17.466Z,99538.64
2018-12-02T22:51:47.053Z,99533.86
2018-12-02T22:54:16.251Z,99530.51
2018-12-02T22:56:45.837Z,99525.08
2018-12-02T22:59:15.301Z,99536.17
2018-12-02T23:01:50.475Z,99531.16
2018-12-02T23:04:19.821Z,99542.73
2018-12-02T23:06:49.214Z,99539.66
2018-12-02T23:09:18.591Z,99533.52
2018-12-02T23:11:48.333Z,99537.66
2018-12-02T23:14:17.674Z,99553.84
2018-12-02T23:16:58.116Z,99550.70
2018-12-02T23:19:27.484Z,99550.24
2018-12-02T23:21:56.814Z,99539.44
2018-12-02T23:24:25.972Z,99540.30
2018-12-02T23:26:55.406Z,99536.78
2018-12-02T23:29:24.677Z,99532.95
2018-12-02T23:31:53.890Z,99527.63
2018-12-02T23:34:23.264Z,99531.25
2018-12-02T23:36:52.612Z,99535.23
2018-12-02T23:39:21.913Z,99528.25
2018-12-02T23:41:51.423Z,99538.96
2018-12-02T23:44:20.658Z,99547.25
2018-12-02T23:46:50.393Z,99546.09
2018-12-02T23:49:19.573Z,99536.94
2018-12-02T23:51:49.018Z,99525.20
2018-12-02T23:54:18.496Z,99516.05
2018-12-02T23:56:48.055Z,99510.82
2018-12-02T23:59:17.333Z,99515.03
